createdAt,value
2022-08-28T00:02:43.610Z,99944.33
2022-08-28T00:07:47.986Z,99947.73
2022-08-28T00:12:52.690Z,99953.41
2022-08-28T00:17:55.696Z,99952.31
2022-08-28T00:23:00.422Z,99949.99
2022-08-28T00:28:08.728Z,99949.79
2022-08-28T00:33:23.795Z,99945.45
2022-08-28T00:38:28.395Z,99936.92
2022-08-28T00:43:40.101Z,99935.55
2022-08-28T00:48:42.999Z,99933.96
2022-08-28T00:53:45.624Z,99928.39
2022-08-28T00:58:51.858Z,99927.42
2022-08-28T01:03:54.595Z,99928.66
2022-08-28T01:08:59.042Z,99927.44
2022-08-28T01:14:05.493Z,99925.71
2022-08-28T01:19:18.431Z,99925.61
2022-08-28T01:24:22.473Z,99922.47
2022-08-28T01:29:25.656Z,99922.94
2022-08-28T01:34:28.582Z,99915.88
2022-08-28T01:39:31.527Z,99920.35
2022-08-28T01:44:34.287Z,99927.80
2022-08-28T01:49:37.326Z,99931.94
2022-08-28T01:54:40.516Z,99935.00
2022-08-28T01:59:43.574Z,99935.98
2022-08-28T02:04:48.346Z,99941.59
2022-08-28T02:09:51.849Z,99935.60
2022-08-28T02:14:55.171Z,99932.10
2022-08-28T02:19:59.835Z,99931.77
2022-08-28T02:25:05.049Z,99930.08
2022-08-28T02:30:11.859Z,99926.16
2022-08-28T02:35:17.221Z,99923.01
2022-08-28T02:40:23.741Z,99924.12
2022-08-28T02:45:26.689Z,99922.51
2022-08-28T02:50:31.113Z,99919.41
2022-08-28T02:55:34.350Z,99921.11
2022-08-28T03:00:37.202Z,99924.15
2022-08-28T03:05:39.984Z,99923.20
2022-08-28T03:10:42.700Z,99923.22
2022-08-28T03:15:46.502Z,99919.30
2022-08-28T03:20:56.007Z,99920.09
2022-08-28T03:26:01.791Z,99921.87
2022-08-28T03:31:06.136Z,99921.44
2022-08-28T03:36:14.002Z,99922.50
2022-08-28T03:41:19.131Z,99918.53
2022-08-28T03:46:24.491Z,99921.30
2022-08-28T03:51:30.793Z,99923.26
2022-08-28T03:56:33.612Z,99919.84
2022-08-28T04:01:38.372Z,99922.27
2022-08-28T04:06:41.794Z,99923.48
2022-08-28T04:11:44.514Z,99928.98
2022-08-28T04:16:47.326Z,99932.67
2022-08-28T04:21:50.098Z,99935.98
2022-08-28T04:26:54.198Z,99933.69
2022-08-28T04:31:58.226Z,99930.48
2022-08-28T04:37:01.105Z,99929.62
2022-08-28T04:42:04.073Z,99927.10
2022-08-28T04:47:06.705Z,99920.82
2022-08-28T04:52:09.449Z,99918.48
2022-08-28T04:57:12.180Z,99919.92
2022-08-28T05:02:14.935Z,99919.38
2022-08-28T05:07:17.714Z,99914.68
2022-08-28T05:12:21.035Z,99915.81
2022-08-28T05:17:23.757Z,99918.93
2022-08-28T05:22:31.149Z,99920.45
2022-08-28T05:27:33.930Z,99927.10
2022-08-28T05:32:36.975Z,99926.29
2022-08-28T05:37:39.783Z,99927.56
2022-08-28T05:42:45.099Z,99928.27
2022-08-28T05:47:47.771Z,99921.55
2022-08-28T05:52:50.464Z,99927.24
2022-08-28T05:57:53.069Z,99927.66
2022-08-28T06:02:55.869Z,99929.69
2022-08-28T06:07:59.226Z,99928.65
2022-08-28T06:13:02.225Z,99931.15
2022-08-28T06:18:05.885Z,99929.58
2022-08-28T06:23:10.766Z,99929.42
2022-08-28T06:28:19.369Z,99927.20
2022-08-28T06:33:23.697Z,99932.23
2022-08-28T06:38:27.162Z,99935.23
2022-08-28T06:43:29.942Z,99932.83
2022-08-28T06:48:32.897Z,99930.39
2022-08-28T06:53:36.439Z,99933.21
2022-08-28T06:58:41.826Z,99936.14
2022-08-28T07:03:45.957Z,99939.24
2022-08-28T07:08:49.265Z,99940.50
2022-08-28T07:13:52.812Z,99942.98
2022-08-28T07:18:57.188Z,99945.42
2022-08-28T07:23:59.933Z,99947.71
2022-08-28T07:29:10.138Z,99946.35
2022-08-28T07:34:17.266Z,99941.59
2022-08-28T07:39:20.034Z,99941.79
2022-08-28T07:44:41.288Z,99939.80
2022-08-28T07:49:44.938Z,99934.83
2022-08-28T07:54:48.140Z,99934.11
2022-08-28T07:59:52.476Z,99930.42
2022-08-28T08:04:55.388Z,99930.49
2022-08-28T08:09:58.522Z,99928.38
2022-08-28T08:15:01.271Z,99924.29
2022-08-28T08:20:05.629Z,99924.88
2022-08-28T08:25:08.831Z,99925.78
2022-08-28T08:30:12.097Z,99923.20
2022-08-28T08:35:14.803Z,99928.98
2022-08-28T08:40:19.763Z,99929.55
2022-08-28T08:45:26.543Z,99929.34
2022-08-28T08:50:34.620Z,99926.13
2022-08-28T08:55:45.202Z,99919.16
2022-08-28T09:00:57.508Z,99919.86
2022-08-28T09:06:06.029Z,99927.33
2022-08-28T09:11:45.186Z,99929.56
2022-08-28T09:16:53.474Z,99926.57
2022-08-28T09:21:56.783Z,99927.56
2022-08-28T09:27:01.837Z,99929.75
2022-08-28T09:32:25.478Z,99927.25
2022-08-28T09:37:32.604Z,99924.15
2022-08-28T09:42:53.973Z,99926.50
2022-08-28T09:48:02.678Z,99924.28
2022-08-28T09:53:14.313Z,99918.66
2022-08-28T09:58:17.542Z,99915.66
2022-08-28T10:03:38.048Z,99915.71
2022-08-28T10:08:49.788Z,99910.98
2022-08-28T10:14:24.704Z,99917.18
2022-08-28T10:19:59.373Z,99914.14
2022-08-28T10:25:08.303Z,99912.50
2022-08-28T10:30:17.615Z,99907.34
2022-08-28T10:35:38.210Z,99908.27
2022-08-28T10:41:08.465Z,99909.73
2022-08-28T10:46:23.106Z,99908.52
2022-08-28T10:51:44.417Z,99901.77
2022-08-28T10:56:56.632Z,99907.20
2022-08-28T11:02:01.044Z,99910.76
2022-08-28T11:07:38.822Z,99908.66
2022-08-28T11:12:43.565Z,99907.60
2022-08-28T11:17:47.729Z,99900.41
2022-08-28T11:22:53.370Z,99901.86
2022-08-28T11:28:22.437Z,99903.88
2022-08-28T11:33:36.080Z,99893.43
2022-08-28T11:38:41.782Z,99898.55
2022-08-28T11:43:46.603Z,99895.39
2022-08-28T11:48:53.178Z,99889.84
2022-08-28T11:54:04.279Z,99890.23
2022-08-28T11:59:13.878Z,99889.02
2022-08-28T12:04:22.696Z,99888.46
2022-08-28T12:09:37.446Z,99897.55
2022-08-28T12:14:40.062Z,99896.46
2022-08-28T12:20:04.927Z,99892.48
2022-08-28T12:25:22.061Z,99895.94
2022-08-28T12:30:31.065Z,99895.35
2022-08-28T12:35:34.307Z,99893.62
2022-08-28T12:40:37.063Z,99887.17
2022-08-28T12:45:45.509Z,99887.98
2022-08-28T12:50:56.369Z,99880.90
2022-08-28T12:56:02.206Z,99879.05
2022-08-28T13:01:16.337Z,99879.02
2022-08-28T13:06:25.772Z,99876.98
2022-08-28T13:11:36.821Z,99874.88
2022-08-28T13:16:47.126Z,99871.92
2022-08-28T13:22:02.004Z,99867.42
2022-08-28T13:27:19.479Z,99863.45
2022-08-28T13:32:23.111Z,99862.02
2022-08-28T13:37:59.861Z,99864.07
2022-08-28T13:43:07.095Z,99859.66
2022-08-28T13:48:11.273Z,99862.80
2022-08-28T13:53:16.071Z,99853.13
2022-08-28T13:58:19.477Z,99852.48
2022-08-28T14:03:39.109Z,99850.28
2022-08-28T14:08:43.796Z,99844.36
2022-08-28T14:13:55.349Z,99843.20
2022-08-28T14:19:04.510Z,99841.65
2022-08-28T14:24:08.463Z,99840.02
2022-08-28T14:29:13.531Z,99834.91
2022-08-28T14:34:20.127Z,99831.39
2022-08-28T14:39:25.241Z,99831.83
2022-08-28T14:44:28.005Z,99829.33
2022-08-28T14:49:30.857Z,99832.42
2022-08-28T14:54:33.590Z,99833.60
2022-08-28T14:59:36.278Z,99832.39
2022-08-28T15:04:39.154Z,99831.59
2022-08-28T15:09:43.034Z,99833.65
2022-08-28T15:14:54.886Z,99832.31
2022-08-28T15:20:01.109Z,99828.55
2022-08-28T15:25:05.955Z,99830.07
2022-08-28T15:30:09.473Z,99820.02
2022-08-28T15:35:12.303Z,99821.01
2022-08-28T15:40:33.877Z,99820.70
2022-08-28T15:45:41.710Z,99817.88
2022-08-28T15:50:45.066Z,99814.86
2022-08-28T15:55:47.900Z,99814.41
2022-08-28T16:00:50.784Z,99837.65
2022-08-28T16:05:53.591Z,99847.16
2022-08-28T16:10:56.773Z,99860.02
2022-08-28T16:15:59.745Z,99872.70
2022-08-28T16:21:04.895Z,99890.80
2022-08-28T16:26:11.088Z,99902.44
2022-08-28T16:31:19.630Z,99919.33
2022-08-28T16:36:26.793Z,99937.84
2022-08-28T16:41:30.418Z,99949.13
2022-08-28T16:46:35.363Z,99957.09
2022-08-28T16:51:39.158Z,99956.27
2022-08-28T16:56:42.492Z,99956.77
2022-08-28T17:01:45.534Z,99947.23
2022-08-28T17:06:55.919Z,99926.89
2022-08-28T17:12:00.188Z,99918.14
2022-08-28T17:17:03.950Z,99925.31
2022-08-28T17:22:27.221Z,99927.33
2022-08-28T17:27:32.235Z,99925.35
2022-08-28T17:32:35.749Z,99934.75
2022-08-28T17:37:40.153Z,99937.27
2022-08-28T17:42:45.715Z,99941.89
2022-08-28T17:47:48.559Z,99946.40
2022-08-28T17:52:51.678Z,99951.27
2022-08-28T17:57:55.091Z,99957.59
2022-08-28T18:02:58.408Z,99968.77
2022-08-28T18:08:01.204Z,99975.27
2022-08-28T18:13:05.680Z,99987.28
2022-08-28T18:18:08.786Z,99980.80
2022-08-28T18:23:11.614Z,99983.45
2022-08-28T18:28:22.474Z,99988.85
2022-08-28T18:33:25.589Z,99995.38
2022-08-28T18:38:28.811Z,99993.84
2022-08-28T18:43:31.889Z,99993.25
2022-08-28T18:48:36.532Z,99993.83
2022-08-28T18:53:43.276Z,99994.64
2022-08-28T18:58:46.246Z,99992.36
2022-08-28T19:03:50.451Z,99997.31
2022-08-28T19:08:53.240Z,99994.61
2022-08-28T19:13:56.011Z,99992.03
2022-08-28T19:18:58.927Z,99984.29
2022-08-28T19:24:05.316Z,99986.34
2022-08-28T19:29:09.531Z,99984.54
2022-08-28T19:34:13.200Z,99984.39
2022-08-28T19:39:16.175Z,99979.19
2022-08-28T19:44:19.135Z,99981.09
2022-08-28T19:49:21.880Z,99977.17
2022-08-28T19:54:24.679Z,99981.42
2022-08-28T19:59:27.503Z,99990.69
2022-08-28T20:04:31.461Z,99992.85
2022-08-28T20:09:34.217Z,99999.86
2022-08-28T20:14:41.494Z,99995.04
2022-08-28T20:19:46.411Z,99998.17
2022-08-28T20:24:49.223Z,100013.30
2022-08-28T20:29:51.986Z,100019.55
2022-08-28T20:34:54.871Z,100023.51
2022-08-28T20:39:58.861Z,100031.91
2022-08-28T20:45:02.791Z,100026.54
2022-08-28T20:50:06.232Z,100029.02
2022-08-28T20:55:10.478Z,100035.75
2022-08-28T21:00:14.095Z,100047.05
2022-08-28T21:05:17.001Z,100049.36
2022-08-28T21:10:20.033Z,100054.69
2022-08-28T21:15:22.808Z,100075.61
2022-08-28T21:20:26.105Z,100100.09
2022-08-28T21:25:30.852Z,100116.63
2022-08-28T21:30:34.283Z,100130.69
2022-08-28T21:35:37.285Z,100142.38
2022-08-28T21:40:41.043Z,100149.95
2022-08-28T21:45:43.920Z,100156.19
2022-08-28T21:50:46.876Z,100153.46
2022-08-28T21:55:54.779Z,100155.10
2022-08-28T22:00:58.479Z,100141.80
2022-08-28T22:06:01.581Z,100125.95
2022-08-28T22:11:04.719Z,100114.38
2022-08-28T22:16:08.482Z,100085.84
2022-08-28T22:21:32.255Z,100071.36
2022-08-28T22:26:35.332Z,100071.89
2022-08-28T22:31:45.513Z,100059.98
2022-08-28T22:36:48.958Z,100035.72
2022-08-28T22:41:51.641Z,100018.86
2022-08-28T22:46:54.261Z,99998.16
2022-08-28T22:51:57.276Z,99985.65
2022-08-28T22:57:00.016Z,99956.38
2022-08-28T23:02:03.818Z,99935.94
2022-08-28T23:07:06.713Z,99929.84
2022-08-28T23:12:09.412Z,99940.88
2022-08-28T23:17:11.990Z,99951.94
2022-08-28T23:22:15.693Z,99962.04
2022-08-28T23:27:35.807Z,99954.09
2022-08-28T23:32:39.479Z,99969.33
2022-08-28T23:37:48.028Z,99979.54
2022-08-28T23:42:53.563Z,99991.30
2022-08-28T23:47:56.292Z,99986.58
2022-08-28T23:52:59.225Z,99993.52
2022-08-28T23:58:04.172Z,100007.10
